sensor_id;sensor_type;location;lat;lon;timestamp;pressure;altitude;pressure_sealevel;temperature;humidity
18500;BME280;9379;52.134;11.576;2023-09-19T00:00:34;99987.75;;;22.17;80.68
18500;BME280;9379;52.134;11.576;2023-09-19T00:03:01;99983.41;;;21.72;79.62
18500;BME280;9379;52.134;11.576;2023-09-19T00:05:34;99988.66;;;21.67;80.25
18500;BME280;9379;52.134;11.576;2023-09-19T00:08:02;99981.63;;;22.03;80.38
18500;BME280;9379;52.134;11.576;2023-09-19T00:10:30;99985.56;;;22.07;79.29
18500;BME280;9379;52.134;11.576;2023-09-19T00:13:01;99996.56;;;21.87;79.36
18500;BME280;9379;52.134;11.576;2023-09-19T00:15:37;99990.28;;;22.30;79.12
18500;BME280;9379;52.134;11.576;2023-09-19T00:18:04;99986.63;;;22.06;78.21
18500;BME280;9379;52.134;11.576;2023-09-19T00:20:35;99998.53;;;21.80;79.52
18500;BME280;9379;52.134;11.576;2023-09-19T00:23:02;99990.56;;;21.42;80.52
18500;BME280;9379;52.134;11.576;2023-09-19T00:25:34;99992.06;;;21.81;79.80
18500;BME280;9379;52.134;11.576;2023-09-19T00:28:02;99995.75;;;22.05;79.88
18500;BME280;9379;52.134;11.576;2023-09-19T00:30:29;99999.75;;;21.59;79.73
18500;BME280;9379;52.134;11.576;2023-09-19T00:32:56;99997.63;;;21.43;80.62
18500;BME280;9379;52.134;11.576;2023-09-19T00:35:23;99983.75;;;21.58;80.55
18500;BME280;9379;52.134;11.576;2023-09-19T00:37:52;99981.56;;;21.48;80.78
18500;BME280;9379;52.134;11.576;2023-09-19T00:40:21;99990.22;;;21.57;81.06
18500;BME280;9379;52.134;11.576;2023-09-19T00:42:49;99990.09;;;21.70;79.89
18500;BME280;9379;52.134;11.576;2023-09-19T00:45:17;99988.78;;;21.54;81.24
18500;BME280;9379;52.134;11.576;2023-09-19T00:47:48;99984.94;;;21.43;80.70
18500;BME280;9379;52.134;11.576;2023-09-19T00:50:17;99996.22;;;21.59;80.25
18500;BME280;9379;52.134;11.576;2023-09-19T00:52:47;100000.81;;;21.58;80.13
18500;BME280;9379;52.134;11.576;2023-09-19T00:55:17;99993.41;;;21.47;81.22
18500;BME280;9379;52.134;11.576;2023-09-19T00:57:45;99983.28;;;21.42;80.35
18500;BME280;9379;52.134;11.576;2023-09-19T01:00:13;99988.47;;;21.44;80.67
18500;BME280;9379;52.134;11.576;2023-09-19T01:02:41;99992.22;;;21.43;79.88
18500;BME280;9379;52.134;11.576;2023-09-19T01:05:10;99998.94;;;21.34;80.13
18500;BME280;9379;52.134;11.576;2023-09-19T01:07:38;99999.41;;;21.74;82.12
18500;BME280;9379;52.134;11.576;2023-09-19T01:10:08;99984.09;;;21.86;81.00
18500;BME280;9379;52.134;11.576;2023-09-19T01:12:45;99996.69;;;21.31;80.21
18500;BME280;9379;52.134;11.576;2023-09-19T01:15:21;100004.03;;;21.92;81.45
18500;BME280;9379;52.134;11.576;2023-09-19T01:17:57;99994.44;;;21.71;80.38
18500;BME280;9379;52.134;11.576;2023-09-19T01:20:36;100007.28;;;22.00;81.37
18500;BME280;9379;52.134;11.576;2023-09-19T01:23:16;100006.88;;;21.78;79.57
18500;BME280;9379;52.134;11.576;2023-09-19T01:26:05;100006.56;;;21.87;80.20
18500;BME280;9379;52.134;11.576;2023-09-19T01:28:53;100015.69;;;21.92;80.47
18500;BME280;9379;52.134;11.576;2023-09-19T01:31:26;100026.28;;;21.94;80.40
18500;BME280;9379;52.134;11.576;2023-09-19T01:33:59;100026.69;;;21.72;80.28
18500;BME280;9379;52.134;11.576;2023-09-19T01:36:31;100022.22;;;21.60;80.89
18500;BME280;9379;52.134;11.576;2023-09-19T01:39:01;100019.25;;;21.68;80.81
18500;BME280;9379;52.134;11.576;2023-09-19T01:41:39;100017.91;;;21.77;80.49
18500;BME280;9379;52.134;11.576;2023-09-19T01:44:15;100021.13;;;21.11;81.46
18500;BME280;9379;52.134;11.576;2023-09-19T01:46:46;100026.66;;;21.22;82.34
18500;BME280;9379;52.134;11.576;2023-09-19T01:49:22;100034.34;;;21.25;82.43
18500;BME280;9379;52.134;11.576;2023-09-19T01:52:03;100032.59;;;21.38;82.04
18500;BME280;9379;52.134;11.576;2023-09-19T01:54:34;100026.78;;;21.34;82.69
18500;BME280;9379;52.134;11.576;2023-09-19T01:57:09;100038.63;;;21.02;83.02
18500;BME280;9379;52.134;11.576;2023-09-19T01:59:43;100032.53;;;21.13;82.34
18500;BME280;9379;52.134;11.576;2023-09-19T02:02:15;100036.19;;;21.32;82.42
18500;BME280;9379;52.134;11.576;2023-09-19T02:04:44;100039.56;;;21.20;82.30
18500;BME280;9379;52.134;11.576;2023-09-19T02:07:12;100035.28;;;21.38;81.70
18500;BME280;9379;52.134;11.576;2023-09-19T02:09:43;100008.16;;;20.88;83.57
18500;BME280;9379;52.134;11.576;2023-09-19T02:12:10;100039.25;;;21.35;82.58
18500;BME280;9379;52.134;11.576;2023-09-19T02:14:38;100042.47;;;21.19;82.30
18500;BME280;9379;52.134;11.576;2023-09-19T02:17:08;100044.31;;;20.87;83.31
18500;BME280;9379;52.134;11.576;2023-09-19T02:19:39;100047.97;;;21.37;82.56
18500;BME280;9379;52.134;11.576;2023-09-19T02:22:06;100048.91;;;20.80;82.74
18500;BME280;9379;52.134;11.576;2023-09-19T02:24:36;100044.69;;;20.52;84.34
18500;BME280;9379;52.134;11.576;2023-09-19T02:27:04;100055.75;;;20.89;83.39
18500;BME280;9379;52.134;11.576;2023-09-19T02:29:31;100061.44;;;20.74;84.02
18500;BME280;9379;52.134;11.576;2023-09-19T02:32:00;100072.63;;;20.78;83.76
18500;BME280;9379;52.134;11.576;2023-09-19T02:34:27;100058.00;;;20.40;84.41
18500;BME280;9379;52.134;11.576;2023-09-19T02:36:55;100052.28;;;21.07;83.15
18500;BME280;9379;52.134;11.576;2023-09-19T02:39:23;100055.97;;;20.81;83.96
18500;BME280;9379;52.134;11.576;2023-09-19T02:41:50;100061.28;;;21.01;83.08
18500;BME280;9379;52.134;11.576;2023-09-19T02:44:17;100066.72;;;20.43;84.56
18500;BME280;9379;52.134;11.576;2023-09-19T02:46:45;100056.25;;;20.66;84.56
18500;BME280;9379;52.134;11.576;2023-09-19T02:49:13;100067.06;;;20.59;84.37
18500;BME280;9379;52.134;11.576;2023-09-19T02:51:40;100072.53;;;20.97;84.06
18500;BME280;9379;52.134;11.576;2023-09-19T02:54:10;100067.66;;;20.75;83.80
18500;BME280;9379;52.134;11.576;2023-09-19T02:56:38;100078.25;;;20.69;83.96
18500;BME280;9379;52.134;11.576;2023-09-19T02:59:06;100082.59;;;20.84;84.24
18500;BME280;9379;52.134;11.576;2023-09-19T03:01:35;100078.91;;;20.58;84.88
18500;BME280;9379;52.134;11.576;2023-09-19T03:04:04;100083.16;;;20.28;84.95
18500;BME280;9379;52.134;11.576;2023-09-19T03:06:31;100087.69;;;20.47;84.19
18500;BME280;9379;52.134;11.576;2023-09-19T03:08:58;100095.56;;;20.55;84.63
18500;BME280;9379;52.134;11.576;2023-09-19T03:11:27;100091.09;;;20.81;83.84
18500;BME280;9379;52.134;11.576;2023-09-19T03:13:54;100099.56;;;20.97;83.49
18500;BME280;9379;52.134;11.576;2023-09-19T03:16:21;100094.16;;;20.26;84.88
18500;BME280;9379;52.134;11.576;2023-09-19T03:18:51;100095.63;;;20.16;84.58
18500;BME280;9379;52.134;11.576;2023-09-19T03:21:18;100110.53;;;20.45;84.18
18500;BME280;9379;52.134;11.576;2023-09-19T03:23:47;100098.78;;;19.93;84.44
18500;BME280;9379;52.134;11.576;2023-09-19T03:26:14;100120.53;;;20.11;84.89
18500;BME280;9379;52.134;11.576;2023-09-19T03:28:43;100113.03;;;20.20;84.42
18500;BME280;9379;52.134;11.576;2023-09-19T03:31:11;100103.09;;;20.07;84.49
18500;BME280;9379;52.134;11.576;2023-09-19T03:33:39;100117.00;;;20.17;84.04
18500;BME280;9379;52.134;11.576;2023-09-19T03:36:07;100114.31;;;19.64;85.47
18500;BME280;9379;52.134;11.576;2023-09-19T03:38:34;100134.63;;;20.13;84.39
18500;BME280;9379;52.134;11.576;2023-09-19T03:41:02;100135.69;;;20.19;84.05
18500;BME280;9379;52.134;11.576;2023-09-19T03:43:29;100112.88;;;19.95;84.94
18500;BME280;9379;52.134;11.576;2023-09-19T03:46:02;100122.81;;;20.01;84.58
18500;BME280;9379;52.134;11.576;2023-09-19T03:48:31;100123.38;;;20.36;84.38
18500;BME280;9379;52.134;11.576;2023-09-19T03:50:58;100107.25;;;20.16;83.75
18500;BME280;9379;52.134;11.576;2023-09-19T03:53:26;100120.28;;;20.26;84.13
18500;BME280;9379;52.134;11.576;2023-09-19T03:55:53;100126.31;;;20.21;83.78
18500;BME280;9379;52.134;11.576;2023-09-19T03:58:21;100141.44;;;20.49;84.12
18500;BME280;9379;52.134;11.576;2023-09-19T04:00:48;100136.69;;;20.24;84.07
18500;BME280;9379;52.134;11.576;2023-09-19T04:03:18;100132.38;;;20.03;84.71
18500;BME280;9379;52.134;11.576;2023-09-19T04:05:46;100129.63;;;20.23;84.82
18500;BME280;9379;52.134;11.576;2023-09-19T04:08:13;100131.75;;;19.95;85.74
18500;BME280;9379;52.134;11.576;2023-09-19T04:10:42;100136.91;;;20.43;84.07
18500;BME280;9379;52.134;11.576;2023-09-19T04:13:09;100142.28;;;20.36;84.21
18500;BME280;9379;52.134;11.576;2023-09-19T04:15:36;100149.78;;;20.07;84.65
18500;BME280;9379;52.134;11.576;2023-09-19T04:18:05;100139.44;;;20.04;84.53
18500;BME280;9379;52.134;11.576;2023-09-19T04:20:34;100132.94;;;20.25;84.23
18500;BME280;9379;52.134;11.576;2023-09-19T04:23:01;100131.53;;;19.70;84.85
18500;BME280;9379;52.134;11.576;2023-09-19T04:25:29;100124.88;;;19.99;84.62
18500;BME280;9379;52.134;11.576;2023-09-19T04:27:57;100140.44;;;19.90;83.89
18500;BME280;9379;52.134;11.576;2023-09-19T04:30:24;100128.22;;;19.81;84.62
18500;BME280;9379;52.134;11.576;2023-09-19T04:32:52;100148.97;;;19.87;84.13
18500;BME280;9379;52.134;11.576;2023-09-19T04:35:19;100145.63;;;20.11;84.08
18500;BME280;9379;52.134;11.576;2023-09-19T04:37:51;100149.59;;;19.96;83.44
18500;BME280;9379;52.134;11.576;2023-09-19T04:40:20;100159.94;;;20.32;83.03
18500;BME280;9379;52.134;11.576;2023-09-19T04:42:53;100147.28;;;19.99;83.71
18500;BME280;9379;52.134;11.576;2023-09-19T04:45:22;100157.69;;;19.96;83.49
18500;BME280;9379;52.134;11.576;2023-09-19T04:47:49;100157.47;;;19.91;83.41
18500;BME280;9379;52.134;11.576;2023-09-19T04:50:17;100180.88;;;19.57;84.88
18500;BME280;9379;52.134;11.576;2023-09-19T04:52:50;100173.47;;;19.92;82.66
18500;BME280;9379;52.134;11.576;2023-09-19T04:55:18;100181.56;;;19.92;83.23
18500;BME280;9379;52.134;11.576;2023-09-19T04:57:46;100180.28;;;19.75;83.39
18500;BME280;9379;52.134;11.576;2023-09-19T05:00:15;100184.44;;;19.91;82.83
18500;BME280;9379;52.134;11.576;2023-09-19T05:02:45;100182.81;;;20.03;82.68
18500;BME280;9379;52.134;11.576;2023-09-19T05:05:12;100184.44;;;19.97;82.37
18500;BME280;9379;52.134;11.576;2023-09-19T05:07:40;100188.13;;;19.57;83.59
18500;BME280;9379;52.134;11.576;2023-09-19T05:10:12;100202.84;;;19.67;83.23
18500;BME280;9379;52.134;11.576;2023-09-19T05:12:39;100185.22;;;19.58;83.65
18500;BME280;9379;52.134;11.576;2023-09-19T05:15:09;100185.34;;;19.43;83.71
18500;BME280;9379;52.134;11.576;2023-09-19T05:17:36;100200.66;;;19.23;84.37
18500;BME280;9379;52.134;11.576;2023-09-19T05:20:05;100197.59;;;19.52;84.01
18500;BME280;9379;52.134;11.576;2023-09-19T05:22:40;100181.44;;;19.46;83.72
18500;BME280;9379;52.134;11.576;2023-09-19T05:25:08;100177.38;;;19.76;83.14
18500;BME280;9379;52.134;11.576;2023-09-19T05:27:38;100187.13;;;19.77;82.62
18500;BME280;9379;52.134;11.576;2023-09-19T05:32:38;100208.53;;;19.24;84.10
18500;BME280;9379;52.134;11.576;2023-09-19T05:35:06;100205.78;;;19.72;83.29
18500;BME280;9379;52.134;11.576;2023-09-19T05:37:35;100212.69;;;20.21;82.01
18500;BME280;9379;52.134;11.576;2023-09-19T05:40:02;100210.84;;;19.41;82.39
18500;BME280;9379;52.134;11.576;2023-09-19T05:42:35;100210.34;;;19.72;82.92
18500;BME280;9379;52.134;11.576;2023-09-19T05:45:04;100226.09;;;19.75;81.17
18500;BME280;9379;52.134;11.576;2023-09-19T05:47:33;100225.06;;;19.69;82.25
18500;BME280;9379;52.134;11.576;2023-09-19T05:50:00;100229.06;;;20.06;80.62
18500;BME280;9379;52.134;11.576;2023-09-19T05:52:28;100239.63;;;19.81;80.52
18500;BME280;9379;52.134;11.576;2023-09-19T05:54:55;100233.03;;;19.43;81.95
18500;BME280;9379;52.134;11.576;2023-09-19T05:57:22;100228.25;;;19.38;81.17
18500;BME280;9379;52.134;11.576;2023-09-19T05:59:50;100244.06;;;19.54;81.65
18500;BME280;9379;52.134;11.576;2023-09-19T06:02:18;100242.06;;;19.63;81.23
18500;BME280;9379;52.134;11.576;2023-09-19T06:04:45;100247.31;;;19.37;82.09
18500;BME280;9379;52.134;11.576;2023-09-19T06:07:12;100251.63;;;19.72;81.50
18500;BME280;9379;52.134;11.576;2023-09-19T06:09:40;100252.22;;;19.61;81.67
18500;BME280;9379;52.134;11.576;2023-09-19T06:12:08;100258.03;;;19.65;80.67
18500;BME280;9379;52.134;11.576;2023-09-19T06:14:34;100260.81;;;19.91;81.12
18500;BME280;9379;52.134;11.576;2023-09-19T06:17:02;100246.31;;;19.44;81.46
18500;BME280;9379;52.134;11.576;2023-09-19T06:19:32;100266.03;;;19.04;81.83
18500;BME280;9379;52.134;11.576;2023-09-19T06:21:59;100266.81;;;19.39;82.21
18500;BME280;9379;52.134;11.576;2023-09-19T06:24:26;100274.13;;;19.45;81.71
18500;BME280;9379;52.134;11.576;2023-09-19T06:26:53;100288.34;;;19.32;82.05
18500;BME280;9379;52.134;11.576;2023-09-19T06:29:20;100288.09;;;19.62;81.26
18500;BME280;9379;52.134;11.576;2023-09-19T06:31:48;100294.38;;;19.82;80.57
18500;BME280;9379;52.134;11.576;2023-09-19T06:34:16;100296.88;;;19.36;80.60
18500;BME280;9379;52.134;11.576;2023-09-19T06:36:45;100293.84;;;19.17;81.86
18500;BME280;9379;52.134;11.576;2023-09-19T06:39:12;100299.25;;;19.17;81.55
18500;BME280;9379;52.134;11.576;2023-09-19T06:41:39;100305.06;;;19.21;81.47
18500;BME280;9379;52.134;11.576;2023-09-19T06:44:07;100305.72;;;19.30;80.95
18500;BME280;9379;52.134;11.576;2023-09-19T06:46:35;100315.38;;;19.52;80.65
18500;BME280;9379;52.134;11.576;2023-09-19T06:49:04;100310.06;;;19.59;79.63
18500;BME280;9379;52.134;11.576;2023-09-19T06:51:32;100314.38;;;19.18;81.49
18500;BME280;9379;52.134;11.576;2023-09-19T06:54:01;100308.78;;;19.20;81.48
18500;BME280;9379;52.134;11.576;2023-09-19T06:56:30;100320.59;;;20.08;80.08
18500;BME280;9379;52.134;11.576;2023-09-19T06:58:58;100330.00;;;19.30;80.89
18500;BME280;9379;52.134;11.576;2023-09-19T07:01:25;100342.63;;;19.64;80.82
18500;BME280;9379;52.134;11.576;2023-09-19T07:03:52;100358.72;;;19.50;81.19
18500;BME280;9379;52.134;11.576;2023-09-19T07:06:20;100361.44;;;19.92;80.67
18500;BME280;9379;52.134;11.576;2023-09-19T07:08:46;100358.22;;;19.68;80.70
18500;BME280;9379;52.134;11.576;2023-09-19T07:11:17;100381.53;;;19.89;80.00
18500;BME280;9379;52.134;11.576;2023-09-19T07:13:44;100381.06;;;20.27;79.32
18500;BME280;9379;52.134;11.576;2023-09-19T07:16:11;100386.13;;;19.95;78.90
18500;BME280;9379;52.134;11.576;2023-09-19T07:18:52;100393.56;;;19.87;78.42
18500;BME280;9379;52.134;11.576;2023-09-19T07:21:20;100396.88;;;19.82;78.64
18500;BME280;9379;52.134;11.576;2023-09-19T07:23:47;100393.84;;;19.57;78.40
18500;BME280;9379;52.134;11.576;2023-09-19T07:26:16;100391.69;;;19.52;77.83
18500;BME280;9379;52.134;11.576;2023-09-19T07:28:43;100385.25;;;19.81;77.23
18500;BME280;9379;52.134;11.576;2023-09-19T07:31:10;100382.03;;;19.65;76.18
18500;BME280;9379;52.134;11.576;2023-09-19T07:33:39;100351.59;;;19.71;75.85
18500;BME280;9379;52.134;11.576;2023-09-19T07:36:10;100375.88;;;19.77;75.35
18500;BME280;9379;52.134;11.576;2023-09-19T07:38:39;100361.63;;;19.49;73.97
18500;BME280;9379;52.134;11.576;2023-09-19T07:41:06;100359.16;;;19.95;74.84
18500;BME280;9379;52.134;11.576;2023-09-19T07:43:35;100362.19;;;19.72;74.33
18500;BME280;9379;52.134;11.576;2023-09-19T07:46:05;100373.72;;;20.14;73.96
18500;BME280;9379;52.134;11.576;2023-09-19T07:48:34;100384.59;;;19.79;73.38
18500;BME280;9379;52.134;11.576;2023-09-19T07:51:02;100383.81;;;19.86;72.72
18500;BME280;9379;52.134;11.576;2023-09-19T07:53:30;100381.97;;;19.99;72.57
18500;BME280;9379;52.134;11.576;2023-09-19T07:56:04;100381.63;;;20.16;72.89
18500;BME280;9379;52.134;11.576;2023-09-19T07:58:32;100391.53;;;20.02;71.94
18500;BME280;9379;52.134;11.576;2023-09-19T08:01:06;100404.66;;;20.11;70.55
18500;BME280;9379;52.134;11.576;2023-09-19T08:03:47;100395.34;;;20.21;71.50
18500;BME280;9379;52.134;11.576;2023-09-19T08:06:14;100403.59;;;20.06;70.95
18500;BME280;9379;52.134;11.576;2023-09-19T08:08:42;100408.88;;;20.27;71.05
18500;BME280;9379;52.134;11.576;2023-09-19T08:11:09;100418.22;;;20.31;71.41
18500;BME280;9379;52.134;11.576;2023-09-19T08:13:39;100419.53;;;20.01;71.03
18500;BME280;9379;52.134;11.576;2023-09-19T08:16:10;100413.97;;;20.09;71.13
18500;BME280;9379;52.134;11.576;2023-09-19T08:18:38;100416.06;;;20.07;70.03
18500;BME280;9379;52.134;11.576;2023-09-19T08:21:05;100428.97;;;20.18;71.25
18500;BME280;9379;52.134;11.576;2023-09-19T08:23:36;100412.88;;;20.45;69.85
18500;BME280;9379;52.134;11.576;2023-09-19T08:26:04;100429.69;;;20.47;69.94
18500;BME280;9379;52.134;11.576;2023-09-19T08:28:33;100426.97;;;20.40;70.08
18500;BME280;9379;52.134;11.576;2023-09-19T08:31:04;100429.59;;;20.20;69.31
18500;BME280;9379;52.134;11.576;2023-09-19T08:33:33;100429.97;;;20.91;68.97
18500;BME280;9379;52.134;11.576;2023-09-19T08:36:01;100435.81;;;21.02;68.92
18500;BME280;9379;52.134;11.576;2023-09-19T08:38:30;100448.63;;;20.53;68.27
18500;BME280;9379;52.134;11.576;2023-09-19T08:40:58;100444.50;;;20.77;68.74
18500;BME280;9379;52.134;11.576;2023-09-19T08:43:26;100448.88;;;21.05;69.72
18500;BME280;9379;52.134;11.576;2023-09-19T08:45:58;100440.34;;;20.68;67.82
18500;BME280;9379;52.134;11.576;2023-09-19T08:48:29;100449.69;;;20.65;68.21
18500;BME280;9379;52.134;11.576;2023-09-19T08:51:02;100442.44;;;20.73;68.13
18500;BME280;9379;52.134;11.576;2023-09-19T08:53:36;100447.38;;;20.49;67.69
18500;BME280;9379;52.134;11.576;2023-09-19T08:56:09;100443.47;;;20.65;68.17
18500;BME280;9379;52.134;11.576;2023-09-19T08:58:43;100443.06;;;20.75;67.16
18500;BME280;9379;52.134;11.576;2023-09-19T09:01:14;100442.44;;;21.06;68.10
18500;BME280;9379;52.134;11.576;2023-09-19T09:03:42;100433.53;;;20.98;66.81
18500;BME280;9379;52.134;11.576;2023-09-19T09:06:14;100440.59;;;21.19;66.00
18500;BME280;9379;52.134;11.576;2023-09-19T09:08:42;100452.81;;;20.69;67.32
18500;BME280;9379;52.134;11.576;2023-09-19T09:11:10;100440.97;;;20.77;67.01
18500;BME280;9379;52.134;11.576;2023-09-19T09:13:37;100446.81;;;20.87;65.96
18500;BME280;9379;52.134;11.576;2023-09-19T09:16:07;100448.47;;;21.14;66.30
18500;BME280;9379;52.134;11.576;2023-09-19T09:18:34;100450.97;;;20.89;65.84
18500;BME280;9379;52.134;11.576;2023-09-19T09:21:01;100456.78;;;20.80;64.70
18500;BME280;9379;52.134;11.576;2023-09-19T09:23:31;100453.63;;;20.63;65.55
18500;BME280;9379;52.134;11.576;2023-09-19T09:25:59;100449.50;;;21.07;65.96
18500;BME280;9379;52.134;11.576;2023-09-19T09:28:29;100448.69;;;21.39;66.42
18500;BME280;9379;52.134;11.576;2023-09-19T09:30:57;100446.84;;;21.40;65.63
18500;BME280;9379;52.134;11.576;2023-09-19T09:33:24;100452.66;;;21.23;65.84
18500;BME280;9379;52.134;11.576;2023-09-19T09:35:53;100455.75;;;21.01;66.86
18500;BME280;9379;52.134;11.576;2023-09-19T09:38:23;100450.16;;;21.29;66.46
18500;BME280;9379;52.134;11.576;2023-09-19T09:40:56;100447.66;;;21.40;65.58
18500;BME280;9379;52.134;11.576;2023-09-19T09:43:32;100447.44;;;21.15;68.26
18500;BME280;9379;52.134;11.576;2023-09-19T09:46:14;100443.50;;;21.38;65.99
18500;BME280;9379;52.134;11.576;2023-09-19T09:49:00;100445.78;;;21.08;65.54
18500;BME280;9379;52.134;11.576;2023-09-19T09:51:45;100441.22;;;21.28;65.78
18500;BME280;9379;52.134;11.576;2023-09-19T09:54:15;100436.22;;;21.05;64.98
18500;BME280;9379;52.134;11.576;2023-09-19T09:56:59;100441.00;;;21.30;65.31
18500;BME280;9379;52.134;11.576;2023-09-19T09:59:44;100452.66;;;21.43;65.57
18500;BME280;9379;52.134;11.576;2023-09-19T10:02:13;100454.13;;;21.39;65.98
18500;BME280;9379;52.134;11.576;2023-09-19T10:04:46;100443.69;;;21.16;66.15
18500;BME280;9379;52.134;11.576;2023-09-19T10:07:25;100449.94;;;21.17;67.80
18500;BME280;9379;52.134;11.576;2023-09-19T10:09:58;100450.59;;;21.25;66.26
18500;BME280;9379;52.134;11.576;2023-09-19T10:12:39;100448.88;;;21.05;65.97
18500;BME280;9379;52.134;11.576;2023-09-19T10:15:11;100444.56;;;21.43;66.24
18500;BME280;9379;52.134;11.576;2023-09-19T10:17:43;100452.44;;;21.45;66.08
18500;BME280;9379;52.134;11.576;2023-09-19T10:20:16;100448.50;;;21.54;64.84
18500;BME280;9379;52.134;11.576;2023-09-19T10:23:05;100443.06;;;21.61;65.71
18500;BME280;9379;52.134;11.576;2023-09-19T10:25:37;100440.78;;;21.51;65.65
18500;BME280;9379;52.134;11.576;2023-09-19T10:38:32;100435.88;;;22.06;64.06
18500;BME280;9379;52.134;11.576;2023-09-19T10:41:01;100442.94;;;22.07;64.05
18500;BME280;9379;52.134;11.576;2023-09-19T10:43:30;100437.69;;;22.19;62.84
18500;BME280;9379;52.134;11.576;2023-09-19T10:46:01;100435.66;;;22.01;62.88
18500;BME280;9379;52.134;11.576;2023-09-19T10:48:29;100435.25;;;22.49;62.25
18500;BME280;9379;52.134;11.576;2023-09-19T10:51:02;100439.84;;;22.80;62.53
18500;BME280;9379;52.134;11.576;2023-09-19T10:53:44;100434.03;;;23.08;63.43
18500;BME280;9379;52.134;11.576;2023-09-19T10:56:18;100437.69;;;22.57;62.16
18500;BME280;9379;52.134;11.576;2023-09-19T10:58:47;100450.19;;;22.96;61.49
18500;BME280;9379;52.134;11.576;2023-09-19T11:01:15;100451.19;;;22.70;60.76
18500;BME280;9379;52.134;11.576;2023-09-19T11:03:43;100451.00;;;22.20;61.38
18500;BME280;9379;52.134;11.576;2023-09-19T11:06:12;100445.94;;;22.68;63.11
18500;BME280;9379;52.134;11.576;2023-09-19T11:09:00;100449.53;;;22.62;60.97
18500;BME280;9379;52.134;11.576;2023-09-19T11:11:46;100448.66;;;23.07;63.59
18500;BME280;9379;52.134;11.576;2023-09-19T11:14:38;100458.09;;;22.97;61.09
18500;BME280;9379;52.134;11.576;2023-09-19T11:17:34;100452.78;;;22.84;61.07
18500;BME280;9379;52.134;11.576;2023-09-19T11:20:29;100465.56;;;22.70;60.62
18500;BME280;9379;52.134;11.576;2023-09-19T11:23:23;100457.50;;;22.95;60.79
18500;BME280;9379;52.134;11.576;2023-09-19T11:25:54;100456.22;;;23.23;61.33
18500;BME280;9379;52.134;11.576;2023-09-19T11:28:34;100457.31;;;22.90;61.25
18500;BME280;9379;52.134;11.576;2023-09-19T11:34:46;100448.69;;;23.25;61.55
18500;BME280;9379;52.134;11.576;2023-09-19T11:40:45;100436.28;;;22.86;61.49
18500;BME280;9379;52.134;11.576;2023-09-19T11:43:34;100441.69;;;22.92;60.63
18500;BME280;9379;52.134;11.576;2023-09-19T11:46:05;100441.44;;;22.94;61.06
18500;BME280;9379;52.134;11.576;2023-09-19T11:48:31;100433.25;;;23.00;60.69
18500;BME280;9379;52.134;11.576;2023-09-19T11:50:58;100439.47;;;23.08;61.10
18500;BME280;9379;52.134;11.576;2023-09-19T11:53:33;100446.34;;;22.40;61.18
18500;BME280;9379;52.134;11.576;2023-09-19T11:56:01;100433.94;;;22.96;60.91
18500;BME280;9379;52.134;11.576;2023-09-19T11:58:30;100444.63;;;23.16;60.29
18500;BME280;9379;52.134;11.576;2023-09-19T12:01:00;100438.47;;;22.70;60.54
18500;BME280;9379;52.134;11.576;2023-09-19T12:03:31;100432.19;;;23.26;60.48
18500;BME280;9379;52.134;11.576;2023-09-19T12:05:59;100435.50;;;23.04;60.31
18500;BME280;9379;52.134;11.576;2023-09-19T12:08:28;100441.66;;;22.61;59.94
18500;BME280;9379;52.134;11.576;2023-09-19T12:10:55;100432.00;;;22.71;61.30
18500;BME280;9379;52.134;11.576;2023-09-19T12:13:23;100435.81;;;22.95;60.32
18500;BME280;9379;52.134;11.576;2023-09-19T12:15:51;100441.25;;;22.89;58.07
18500;BME280;9379;52.134;11.576;2023-09-19T12:18:29;100439.31;;;22.64;59.47
18500;BME280;9379;52.134;11.576;2023-09-19T12:20:57;100441.94;;;22.84;58.99
18500;BME280;9379;52.134;11.576;2023-09-19T12:23:24;100439.38;;;22.89;60.43
18500;BME280;9379;52.134;11.576;2023-09-19T12:25:52;100453.16;;;23.13;59.97
18500;BME280;9379;52.134;11.576;2023-09-19T12:28:23;100445.25;;;22.80;59.28
18500;BME280;9379;52.134;11.576;2023-09-19T12:30:54;100431.81;;;22.98;59.40
18500;BME280;9379;52.134;11.576;2023-09-19T12:33:23;100440.41;;;22.95;60.14
18500;BME280;9379;52.134;11.576;2023-09-19T12:35:52;100445.34;;;23.05;59.76
18500;BME280;9379;52.134;11.576;2023-09-19T12:38:24;100441.38;;;23.00;58.53
18500;BME280;9379;52.134;11.576;2023-09-19T12:40:54;100443.34;;;23.18;59.21
18500;BME280;9379;52.134;11.576;2023-09-19T12:43:24;100439.47;;;23.08;57.99
18500;BME280;9379;52.134;11.576;2023-09-19T12:45:52;100435.91;;;23.07;57.43
18500;BME280;9379;52.134;11.576;2023-09-19T12:48:23;100433.94;;;22.96;58.00
18500;BME280;9379;52.134;11.576;2023-09-19T12:51:05;100435.63;;;22.90;57.81
18500;BME280;9379;52.134;11.576;2023-09-19T12:53:35;100440.06;;;22.85;58.02
18500;BME280;9379;52.134;11.576;2023-09-19T12:56:06;100435.81;;;22.95;59.17
18500;BME280;9379;52.134;11.576;2023-09-19T12:58:36;100431.94;;;22.78;58.43
18500;BME280;9379;52.134;11.576;2023-09-19T13:01:14;100434.00;;;22.51;57.86
18500;BME280;9379;52.134;11.576;2023-09-19T13:03:41;100430.50;;;22.76;59.11
18500;BME280;9379;52.134;11.576;2023-09-19T13:06:10;100419.38;;;22.59;58.94
18500;BME280;9379;52.134;11.576;2023-09-19T13:08:38;100426.78;;;22.70;59.04
18500;BME280;9379;52.134;11.576;2023-09-19T13:11:09;100418.78;;;22.82;59.17
18500;BME280;9379;52.134;11.576;2023-09-19T13:13:39;100425.75;;;22.71;58.78
18500;BME280;9379;52.134;11.576;2023-09-19T13:16:06;100429.97;;;22.60;58.59
18500;BME280;9379;52.134;11.576;2023-09-19T13:18:47;100428.53;;;22.89;58.85
18500;BME280;9379;52.134;11.576;2023-09-19T13:21:27;100419.88;;;23.06;59.07
18500;BME280;9379;52.134;11.576;2023-09-19T13:23:55;100417.56;;;22.78;58.03
18500;BME280;9379;52.134;11.576;2023-09-19T13:26:25;100412.16;;;22.46;58.61